• Join FlightAware (Why Join?)
  • Login
  • US Flag 
Trick or treat! (Boo!!) 
04:39PM EDT


 

Airport Tracker/Info


-or-


 

Live Flight TrackerFlight Track Log ✈ AAL1278 ✈ 08-May-2013 ✈ KLAX - KORD

Flight Track Log - Related Links

Times and Time Zones

All times are in EDT time to prevent confusion due to time zone crossing. See the AAL1278 flight status page for this flight to view local times or setup timezone preferences in your user account.

Time Position Orientation Groundspeed Altitude Reporting Facility
EDT Latitude Longitude Course Direction KTS MPH feet Rate Location/Type
07:42PM 33.9333 -118.4333 90° East 169 194 1,500  Level Southern California TRACON
07:43PM 33.9289 -118.4592 258° West 176 203 1,900 1,500 Climbing Los Angeles Center
07:44PM 33.8549 -118.6557 189° South  Level FlightAware Approximate
07:44PM 33.8875 -118.5183 230° Southwest 236 272 3,600  Level Los Angeles Center
07:45PM 33.7483 -118.5979 134° Southeast  Level FlightAware Approximate
07:45PM 33.8208 -118.5325 190° South 267 307 5,500  Level Los Angeles Center
07:46PM 33.6757 -118.4707 101° East  Level FlightAware Approximate
07:46PM 33.7450 -118.5244 175° South 278 320 8,100  Level Los Angeles Center
07:47PM 33.6333 -118.3234 90° East  Level FlightAware Approximate
07:47PM 33.6753 -118.4614 143° Southeast 304 350 10,500  Level Los Angeles Center
07:48PM 33.6333 -118.1641 90° East  Level FlightAware Approximate
07:48PM 33.6494 -118.3558 106° East 333 383 12,700  Level Los Angeles Center
07:49PM 33.6442 -118.2364 93° East 368 423 14,800 2,160 Climbing Los Angeles Center
07:50PM 33.6428 -118.1086 91° East 385 443 17,200 2,460 Climbing Los Angeles Center
07:51PM 33.6453 -117.9461 89° East 404 465 19,900 2,160 Climbing Los Angeles Center
07:52PM 33.6439 -117.8047 91° East 423 487 22,100 1,980 Climbing Los Angeles Center
07:53PM 33.6431 -117.6300 90° East 438 504 24,400 1,800 Climbing Los Angeles Center
07:54PM 33.6414 -117.4789 91° East 452 520 25,900 1,380 Climbing Los Angeles Center
07:55PM 33.6400 -117.3228 91° East 467 537 27,300 1,380 Climbing Los Angeles Center
07:56PM 33.6386 -117.1292 90° East 488 562 28,800 1,320 Climbing Los Angeles Center
07:57PM 33.6378 -116.9656 90° East 493 567 30,100 1,380 Climbing Los Angeles Center
07:58PM 33.6358 -116.7925 91° East 497 572 31,700 1,440 Climbing Los Angeles Center
07:59PM 33.6561 -116.6297 81° East 492 566 33,100 1,320 Climbing Los Angeles Center
08:00PM 33.6939 -116.4733 74° East 487 560 34,500 1,200 Climbing Los Angeles Center
08:02PM 33.7292 -116.3172 75° East 484 557 35,700 960 Climbing Los Angeles Center
08:03PM 33.7658 -116.1619 74° East 481 554 36,500 600 Climbing Los Angeles Center
08:04PM 33.8022 -116.0036 74° East 488 562 37,000 240 Climbing Los Angeles Center
08:05PM 33.8469 -115.8156 74° East 487 560 37,000  Level Los Angeles Center
08:06PM 33.8758 -115.6842 75° East 500 575 37,000  Level Los Angeles Center
08:07PM 33.9192 -115.4900 75° East 501 577 37,000 -60 Level Los Angeles Center
08:08PM 33.9558 -115.3275 75° East 502 578 36,900  Descending Los Angeles Center
08:09PM 33.9928 -115.1661 75° East 502 578 37,000  Climbing Los Angeles Center
08:10PM 34.0289 -115.0033 75° East 502 578 36,900  Descending Los Angeles Center
08:11PM 34.0739 -114.8075 74° East 505 581 37,000  Climbing Los Angeles Center
08:12PM 34.1114 -114.6467 74° East 501 577 36,900  Descending Los Angeles Center
08:13PM 34.1561 -114.4881 71° East 501 577 37,000  Climbing Los Angeles Center
08:14PM 34.2008 -114.3283 71° East 504 580 37,000  Level Los Angeles Center
08:15PM 34.2464 -114.1692 71° East 502 578 37,000  Level Los Angeles Center
08:16PM 34.2953 -113.9892 72° East 508 585 37,000  Level Albuquerque Center
08:17PM 34.3497 -113.7986 71° East 504 580 37,000  Level Albuquerque Center
08:18PM 34.3931 -113.6383 72° East 502 578 37,000  Level Albuquerque Center
08:19PM 34.4358 -113.4803 72° East 504 580 37,000  Level Albuquerque Center
08:20PM 34.4786 -113.3214 72° East 502 578 37,000  Level Albuquerque Center
08:21PM 34.5217 -113.1586 72° East 507 583 37,000  Level Albuquerque Center
08:22PM 34.5656 -112.9981 72° East 507 583 37,000  Level Albuquerque Center
08:23PM 34.6556 -112.8297 57° Northeast 503 579 37,000  Level Albuquerque Center
08:24PM 34.7450 -112.7011 50° Northeast 505 581 37,000  Level Albuquerque Center
08:25PM 34.8333 -112.5728 50° Northeast 501 577 37,000  Level Albuquerque Center
08:26PM 34.9214 -112.4442 50° Northeast 500 575 37,000  Level Albuquerque Center
08:27PM 35.0086 -112.3158 50° Northeast 499 574 37,000  Level Albuquerque Center
08:28PM 35.1144 -112.1611 50° Northeast 500 575 37,000  Level Albuquerque Center
08:29PM 35.2025 -112.0322 50° Northeast 499 574 37,000  Level Albuquerque Center
08:30PM 35.2883 -111.9022 51° Northeast 498 573 37,000  Level Albuquerque Center
08:32PM 35.3742 -111.7722 51° Northeast 496 571 37,000  Level Albuquerque Center
08:33PM 35.4611 -111.6419 51° Northeast 497 572 37,000  Level Albuquerque Center
08:34PM 35.5497 -111.5117 50° Northeast 498 573 37,000  Level Albuquerque Center
08:35PM 35.6517 -111.3575 51° Northeast 499 574 37,000  Level Albuquerque Center
08:36PM 35.7347 -111.2294 51° Northeast 499 574 37,000  Level Albuquerque Center
08:37PM 35.8331 -111.0814 51° Northeast 498 573 37,000  Level Albuquerque Center
08:38PM 35.9261 -110.9408 51° Northeast 497 572 37,000  Level Denver Center
08:39PM 36.0125 -110.8086 51° Northeast 496 571 37,000  Level Denver Center
08:40PM 36.1164 -110.6494 51° Northeast 497 572 37,000  Level Denver Center
08:41PM 36.2006 -110.5167 52° Northeast 495 570 37,000  Level Denver Center
08:42PM 36.2883 -110.3828 51° Northeast 499 574 37,000  Level Denver Center
08:43PM 36.3742 -110.2483 52° Northeast 500 575 37,000  Level Denver Center
08:44PM 36.4686 -110.1003 52° Northeast 498 573 37,000  Level Denver Center
08:45PM 36.5503 -109.9719 52° Northeast 494 568 37,000  Level Denver Center
08:46PM 36.6461 -109.8225 51° Northeast 492 566 37,000  Level Denver Center
08:47PM 36.7267 -109.6939 52° Northeast 491 565 37,000  Level Denver Center
08:48PM 36.8217 -109.5444 52° Northeast 492 566 37,000  Level Denver Center
08:49PM 36.9011 -109.4169 52° Northeast 486 559 37,000  Level Denver Center
08:50PM 36.9808 -109.2883 52° Northeast 488 562 37,000  Level Denver Center
08:51PM 37.0736 -109.1406 52° Northeast 484 557 37,000  Level Denver Center
08:52PM 37.1519 -109.0133 52° Northeast 481 554 37,000  Level Denver Center
08:53PM 37.2172 -108.9067 52° Northeast 482 555 37,000  Level Denver Center
08:54PM 37.3222 -108.7361 52° Northeast 483 556 37,000  Level Denver Center
08:55PM 37.4125 -108.5858 53° Northeast 482 555 37,000  Level Denver Center
08:56PM 37.4903 -108.4606 52° Northeast 477 549 37,000  Level Denver Center
08:58PM 37.5942 -108.2886 53° Northeast 480 552 37,000  Level Denver Center
08:59PM 37.6708 -108.1600 53° Northeast 478 550 37,000  Level Denver Center
09:00PM 37.7603 -108.0125 52° Northeast 475 547 37,000  Level Denver Center
09:01PM 37.8358 -107.8847 53° Northeast 472 543 37,000  Level Denver Center
09:02PM 37.9128 -107.7567 53° Northeast 477 549 37,000  Level Denver Center
09:03PM 38.0011 -107.6089 53° Northeast 472 543 37,000  Level Denver Center
09:04PM 38.0800 -107.4733 53° Northeast 475 547 37,000  Level Denver Center
09:05PM 38.1686 -107.3244 53° Northeast 472 543 37,000  Level Denver Center
09:06PM 38.2431 -107.1956 54° Northeast 473 544 37,000  Level Denver Center
09:07PM 38.3178 -107.0694 53° Northeast 473 544 37,000  Level Denver Center
09:08PM 38.3956 -106.9358 53° Northeast 470 541 37,000  Level Denver Center
09:09PM 38.4731 -106.8000 54° Northeast 473 544 37,000  Level Denver Center
09:10PM 38.5667 -106.6394 53° Northeast 471 542 37,000  Level Denver Center
09:11PM 38.6439 -106.5033 54° Northeast 474 545 37,000  Level Denver Center
09:12PM 38.7219 -106.3672 54° Northeast 475 547 37,000  Level Denver Center
09:13PM 38.7986 -106.2314 54° Northeast 474 545 37,000  Level Denver Center
09:14PM 38.8839 -106.0831 54° Northeast 475 547 37,000  Level Denver Center
09:15PM 38.9528 -105.9594 54° Northeast 472 543 37,000  Level Denver Center
09:16PM 39.0414 -105.8019 54° Northeast 468 539 37,000  Level Denver Center
09:17PM 39.1119 -105.6736 55° Northeast 462 532 37,000  Level Denver Center
09:18PM 39.1922 -105.5311 54° Northeast 461 531 37,000  Level Denver Center
09:19PM 39.2736 -105.3858 54° Northeast 461 531 37,000  Level Denver Center
09:20PM 39.3461 -105.2500 55° Northeast 461 531 37,000  Level Denver Center
09:21PM 39.4264 -105.1069 54° Northeast 459 528 37,000  Level Denver Center
09:22PM 39.5006 -104.9706 55° Northeast 465 535 37,000  Level Denver Center
09:23PM 39.5731 -104.8356 55° Northeast 461 531 37,000  Level Denver Center
09:24PM 39.6531 -104.6881 55° Northeast 467 537 37,000  Level Denver Center
09:25PM 39.7031 -104.5361 67° East 462 532 37,000  Level Denver Center
09:26PM 39.7322 -104.3594 78° East 467 537 37,000  Level Denver Center
09:28PM 39.7586 -104.1956 78° East 467 537 37,000  Level Denver Center
09:29PM 39.7875 -104.0175 78° East 470 541 37,000  Level Denver Center
09:30PM 39.8136 -103.8511 78° East 470 541 37,000  Level Denver Center
09:31PM 39.8400 -103.6842 78° East 457 526 37,000  Level Denver Center
09:32PM 39.8653 -103.5267 78° East 464 534 37,000  Level Denver Center
09:33PM 39.9081 -103.3428 73° East 476 548 37,000  Level Denver Center
09:34PM 39.9858 -103.2075 53° Northeast 487 560 37,000  Level Denver Center
09:35PM 40.0775 -103.0539 52° Northeast 483 556 37,000  Level Denver Center
09:36PM 40.1544 -102.9253 52° Northeast 474 545 37,000  Level Denver Center
09:37PM 40.2283 -102.7958 53° Northeast 468 539 37,000  Level Denver Center
09:38PM 40.3119 -102.6519 53° Northeast 448 516 37,000  Level Denver Center
09:39PM 40.3850 -102.5272 52° Northeast 449 517 37,000  Level Denver Center
09:40PM 40.4553 -102.4028 53° Northeast 445 512 37,000  Level Denver Center
09:41PM 40.5400 -102.2569 53° Northeast 449 517 37,000  Level Denver Center
09:42PM 40.6242 -102.1100 53° Northeast 449 517 37,000  Level Denver Center
09:43PM 40.6964 -101.9833 53° Northeast 451 519 37,000  Level Denver Center
09:44PM 40.7817 -101.8328 53° Northeast 458 527 37,000  Level Denver Center
09:45PM 40.8544 -101.7025 54° Northeast 460 529 37,000  Level Denver Center
09:46PM 40.9286 -101.5717 53° Northeast 462 532 37,000  Level Denver Center
09:47PM 41.0156 -101.4181 53° Northeast 465 535 37,000  Level Denver Center
09:48PM 41.0897 -101.2839 54° Northeast 468 539 37,000  Level Denver Center
09:49PM 41.1767 -101.1275 54° Northeast 469 540 37,000  Level Denver Center
09:50PM 41.2503 -100.9931 54° Northeast 467 537 37,000  Level Denver Center
09:51PM 41.3233 -100.8578 54° Northeast 468 539 37,000  Level Denver Center
09:52PM 41.4094 -100.7022 54° Northeast 466 536 37,000  Level Denver Center
09:53PM 41.4819 -100.5681 54° Northeast 465 535 37,000  Level Denver Center
09:54PM 41.5656 -100.4139 54° Northeast 460 529 37,000  Level Denver Center
09:55PM 41.6342 -100.2789 56° Northeast 459 528 37,000  Level Denver Center
09:56PM 41.6664 -100.1189 75° East 461 531 37,000  Level Denver Center
09:57PM 41.7011 -99.9328 76° East 462 532 37,000  Level Denver Center
09:58PM 41.7314 -99.7711 76° East 465 535 37,000  Level Denver Center
09:59PM 41.7636 -99.5950 76° East 466 536 37,000  Level Denver Center
10:00PM 41.7956 -99.4258 76° East 467 537 37,000  Level Denver Center
10:01PM 41.8264 -99.2558 76° East 466 536 37,000  Level Denver Center
10:02PM 41.8561 -99.0867 77° East 466 536 37,000  Level Denver Center
10:03PM 41.8764 -98.9842 75° East 468 539 37,000  Level Minneapolis Center
10:04PM 41.9067 -98.8117 77° East 472 543 37,000  Level Minneapolis Center
10:05PM 41.9367 -98.6403 77° East 471 542 37,000  Level Minneapolis Center
10:06PM 41.9658 -98.4731 77° East 463 533 37,000  Level Minneapolis Center
10:07PM 42.0000 -98.2719 77° East 459 528 37,000  Level Minneapolis Center
10:08PM 42.0136 -98.0856 84° East 461 531 37,000  Level Minneapolis Center
10:09PM 42.0278 -97.9133 84° East 463 533 37,000  Level Minneapolis Center
10:10PM 42.0381 -97.7758 84° East 462 532 37,000  Level Minneapolis Center
10:11PM 42.0569 -97.5681 83° East 465 535 37,000  Level Minneapolis Center
10:12PM 42.0711 -97.3928 84° East 469 540 37,000  Level Minneapolis Center
10:13PM 42.0847 -97.2164 84° East 473 544 37,000  Level Minneapolis Center
10:15PM 42.1008 -97.0008 84° East 479 551 37,000  Level Minneapolis Center
10:16PM 42.1139 -96.8200 84° East 482 555 37,000  Level Minneapolis Center
10:17PM 42.1269 -96.6389 84° East 484 557 37,000  Level Minneapolis Center
10:18PM 42.1406 -96.4569 84° East 486 559 37,000  Level Minneapolis Center
10:19PM 42.1531 -96.2722 85° East 491 565 37,000  Level Minneapolis Center
10:20PM 42.1650 -96.0869 85° East 494 568 37,000  Level Minneapolis Center
10:21PM 42.1781 -95.9031 84° East 492 566 37,000  Level Minneapolis Center
10:22PM 42.1900 -95.7192 85° East 491 565 37,000  Level Minneapolis Center
10:23PM 42.2039 -95.4969 85° East 494 568 37,000  Level Minneapolis Center
10:24PM 42.2150 -95.3136 85° East 490 564 37,000  Level Minneapolis Center
10:25PM 42.2278 -95.0931 85° East 490 564 37,000  Level Minneapolis Center
10:26PM 42.2389 -94.9086 85° East 492 566 37,000  Level Minneapolis Center
10:27PM 42.2494 -94.7239 86° East 493 567 37,000  Level Minneapolis Center
10:28PM 42.2581 -94.5411 86° East 490 564 37,000  Level Minneapolis Center
10:29PM 42.2678 -94.3586 86° East 488 562 37,000  Level Minneapolis Center
10:30PM 42.2772 -94.1892 86° East 483 556 37,000  Level Minneapolis Center
10:31PM 42.2867 -94.0094 86° East 486 559 37,000  Level Minneapolis Center
10:32PM 42.2969 -93.7939 86° East 485 558 37,000  Level Minneapolis Center
10:33PM 42.3044 -93.6144 87° East 485 558 37,000  Level Minneapolis Center
10:34PM 42.3128 -93.4328 86° East 489 563 37,000  Level Minneapolis Center
10:35PM 42.3208 -93.2508 87° East 490 564 37,000  Level Minneapolis Center
10:36PM 42.3289 -93.0689 87° East 491 565 37,000  Level Minneapolis Center
10:37PM 42.3361 -92.8861 87° East 491 565 37,000  Level Minneapolis Center
10:38PM 42.3444 -92.6664 87° East 493 567 37,000  Level Minneapolis Center
10:39PM 42.3508 -92.4850 87° East 492 566 37,000  Level Minneapolis Center
10:40PM 42.3581 -92.3031 87° East 491 565 37,000  Level Minneapolis Center
10:41PM 42.3631 -92.1217 88° East 489 563 37,000  Level Chicago Center
10:42PM 42.3694 -91.9419 87° East 487 560 37,000  Level Chicago Center
10:43PM 42.3747 -91.7636 88° East 486 559 37,000 -360 Level Chicago Center
10:44PM 42.3803 -91.5844 88° East 485 558 36,300 -960 Descending Chicago Center
10:45PM 42.3858 -91.3681 88° East 491 565 35,100 -660 Descending Chicago Center
10:46PM 42.3903 -91.1908 88° East 485 558 35,000 -60 Descending Chicago Center
10:47PM 42.3950 -91.0117 88° East 485 558 35,000 -300 Level Chicago Center
10:48PM 42.3978 -90.8319 89° East 486 559 34,400 -1,320 Descending Chicago Center
10:49PM 42.4050 -90.6547 87° East 481 554 32,400 -1,920 Descending Chicago Center
10:50PM 42.4239 -90.4786 82° East 480 552 30,500 -1,980 Descending Chicago Center
10:51PM 42.4464 -90.2708 82° East 470 541 28,400 -2,040 Descending Chicago Center
10:53PM 42.4625 -90.1067 82° East 450 518 26,400 -1,860 Descending Chicago Center
10:54PM 42.4775 -89.9483 83° East 432 497 24,600 -1,200 Descending Chicago Center
10:55PM 42.4928 -89.7897 83° East 405 466 24,000 -1,140 Descending Chicago Center
10:56PM 42.5075 -89.6339 83° East 415 478 22,400 -1,620 Descending Chicago Center
10:57PM 42.5217 -89.4803 83° East 413 475 20,800 -1,680 Descending Chicago Center
10:58PM 42.5364 -89.3308 82° East 403 464 19,000 -2,040 Descending Chicago Center
10:59PM 42.5497 -89.1833 83° East 397 457 16,700 -1,800 Descending Chicago Center
11:00PM 42.5369 -89.0431 97° East 385 443 15,400 -1,380 Descending Chicago Center
11:01PM 42.4994 -88.9111 111° Southeast 330 380 14,000 -1,440 Descending Chicago Center
11:02PM 42.4667 -88.8028 112° Southeast 317 365 12,500 -1,500 Descending Chicago Center
11:03PM 42.4339 -88.6967 113° Southeast 309 356 11,000 -1,440 Descending Chicago Center
11:04PM 42.4031 -88.5922 112° Southeast 304 350 9,600 -1,020 Descending Chicago Center
11:05PM 42.3525 -88.5156 132° Southeast 298 343 9,000 -780 Descending Chicago Center
11:06PM 42.2828 -88.4725 155° Southeast 258 297 8,100 -1,020 Descending Chicago Center
11:07PM 42.2233 -88.4378 157° South 240 276 7,000 -600 Descending Chicago Center
11:08PM 42.1625 -88.4036 157° South 237 273 6,900 -540 Descending Chicago Center
11:09PM 42.1022 -88.3692 157° South 237 273 6,000 -900 Descending Chicago Center
11:10PM 42.0444 -88.3353 156° South 231 266 5,100 -540 Descending Chicago Center
11:11PM 41.9908 -88.3317 177° South 197 227 5,000 -240 Descending Chicago Center
11:12PM 41.9667 -88.2692 117° Southeast 193 222 4,700 -300 Descending Chicago Center
11:13PM 41.9669 -88.1989 90° East 189 217 4,400 -300 Descending Chicago Center